createdAt,value
2023-04-25T00:04:23.606Z,2.55
2023-04-25T00:09:26.107Z,2.97
2023-04-25T00:14:28.722Z,2.60
2023-04-25T00:19:30.551Z,2.83
2023-04-25T00:24:32.450Z,2.60
2023-04-25T00:29:34.921Z,3.00
2023-04-25T00:34:37.026Z,2.65
2023-04-25T00:39:38.817Z,3.28
2023-04-25T00:44:41.120Z,3.17
2023-04-25T00:49:43.176Z,2.92
2023-04-25T00:54:45.006Z,2.80
2023-04-25T00:59:47.671Z,2.90
2023-04-25T01:04:49.992Z,2.60
2023-04-25T01:09:54.890Z,3.03
2023-04-25T01:14:56.784Z,2.75
2023-04-25T01:19:58.683Z,3.05
2023-04-25T01:25:01.617Z,2.78
2023-04-25T01:30:04.564Z,2.58
2023-04-25T01:35:10.461Z,2.80
2023-04-25T01:40:13.409Z,3.00
2023-04-25T01:45:15.504Z,3.00
2023-04-25T01:50:20.472Z,2.80
2023-04-25T01:55:23.236Z,2.88
2023-04-25T02:00:33.501Z,2.63
2023-04-25T02:05:37.595Z,2.92
2023-04-25T02:10:41.328Z,2.80
2023-04-25T02:16:06.205Z,2.72
2023-04-25T02:21:08.132Z,2.60
2023-04-25T02:26:09.858Z,2.28
2023-04-25T02:31:11.731Z,2.40
2023-04-25T02:36:13.537Z,2.70
2023-04-25T02:41:16.959Z,2.55
2023-04-25T02:46:25.466Z,3.10
2023-04-25T02:51:35.424Z,2.90
2023-04-25T02:56:37.295Z,3.33
2023-04-25T03:01:43.070Z,2.75
2023-04-25T03:06:44.796Z,2.70
2023-04-25T03:11:47.152Z,2.72
2023-04-25T03:16:49.117Z,2.60
2023-04-25T03:21:52.792Z,2.72
2023-04-25T03:26:54.831Z,3.40
2023-04-25T03:31:56.670Z,3.03
2023-04-25T03:36:58.682Z,3.10
2023-04-25T03:42:00.815Z,3.25
2023-04-25T03:47:04.356Z,3.40
2023-04-25T03:52:06.711Z,2.78
2023-04-25T03:57:12.386Z,3.97
2023-04-25T04:02:15.447Z,3.38
2023-04-25T04:07:17.436Z,3.50
2023-04-25T04:12:22.440Z,3.22
2023-04-25T04:17:24.429Z,3.40
2023-04-25T04:22:27.569Z,3.20
2023-04-25T04:27:33.776Z,3.28
2023-04-25T04:32:56.851Z,3.47
2023-04-25T04:37:58.926Z,3.90
2023-04-25T04:43:04.714Z,3.80
2023-04-25T04:48:09.723Z,4.50
2023-04-25T04:53:31.819Z,4.18
2023-04-25T04:58:53.843Z,4.40
2023-04-25T05:04:18.788Z,4.10
2023-04-25T05:09:26.689Z,4.40
2023-04-25T05:14:42.479Z,3.88
2023-04-25T05:20:12.582Z,4.70
2023-04-25T05:25:32.938Z,4.05
2023-04-25T05:31:01.487Z,3.88
2023-04-25T05:36:15.542Z,4.35
2023-04-25T05:41:17.924Z,5.05
2023-04-25T05:46:39.991Z,6.53
2023-04-25T05:51:53.872Z,9.68
2023-04-25T05:57:07.399Z,5.88
2023-04-25T06:02:09.551Z,5.68
2023-04-25T06:07:13.971Z,5.70
2023-04-25T06:12:16.338Z,5.55
2023-04-25T06:17:18.440Z,11.63
2023-04-25T06:22:20.217Z,5.45
2023-04-25T06:27:22.067Z,4.75
2023-04-25T06:32:24.279Z,4.93
2023-04-25T06:37:26.323Z,4.85
2023-04-25T06:42:28.176Z,6.03
2023-04-25T06:47:34.654Z,5.30
2023-04-25T06:52:37.741Z,5.95
2023-04-25T06:57:39.732Z,7.38
2023-04-25T07:03:10.686Z,5.00
2023-04-25T07:08:13.172Z,5.18
2023-04-25T07:13:14.964Z,4.80
2023-04-25T07:18:17.494Z,4.00
2023-04-25T07:23:19.666Z,4.65
2023-04-25T07:28:22.470Z,4.30
2023-04-25T07:33:24.272Z,4.00
2023-04-25T07:38:26.106Z,4.38
2023-04-25T07:43:27.929Z,4.65
2023-04-25T07:48:33.695Z,4.88
2023-04-25T07:53:38.544Z,5.13
2023-04-25T07:58:45.737Z,4.82
2023-04-25T08:03:50.544Z,5.32
2023-04-25T08:08:59.521Z,4.88
2023-04-25T08:14:08.898Z,5.13
2023-04-25T08:19:12.398Z,4.45
2023-04-25T08:24:14.392Z,4.25
2023-04-25T08:29:17.081Z,4.60
2023-04-25T08:34:21.058Z,4.32
2023-04-25T08:39:24.539Z,4.00
2023-04-25T08:44:48.833Z,4.45
2023-04-25T08:49:55.528Z,4.10
2023-04-25T08:54:58.512Z,4.25
2023-04-25T09:00:04.387Z,4.32
2023-04-25T09:05:10.871Z,4.07
2023-04-25T09:10:12.927Z,3.13
2023-04-25T09:15:20.587Z,2.92
2023-04-25T09:21:13.045Z,3.20
2023-04-25T09:31:25.608Z,2.80
2023-04-25T09:36:31.706Z,3.22
2023-04-25T09:41:55.672Z,3.42
2023-04-25T09:52:02.172Z,2.97
2023-04-25T09:57:22.021Z,5.38
2023-04-25T10:02:26.573Z,3.22
2023-04-25T10:07:34.792Z,3.55
2023-04-25T10:12:37.794Z,4.55
2023-04-25T10:17:40.145Z,2.95
2023-04-25T10:22:46.983Z,2.38
2023-04-25T10:27:52.474Z,2.47
2023-04-25T10:32:56.217Z,2.60
2023-04-25T10:38:01.553Z,2.65
2023-04-25T10:43:34.892Z,2.75
2023-04-25T10:48:36.668Z,1.80
2023-04-25T10:53:38.642Z,2.05
2023-04-25T10:58:45.343Z,2.35
2023-04-25T11:03:51.306Z,2.83
2023-04-25T11:08:53.779Z,2.78
2023-04-25T11:13:55.852Z,3.22
2023-04-25T11:18:59.250Z,3.03
2023-04-25T11:24:01.671Z,3.13
2023-04-25T11:29:03.951Z,3.20
2023-04-25T11:34:05.858Z,3.33
2023-04-25T11:39:08.149Z,9.43
2023-04-25T11:44:10.032Z,3.42
2023-04-25T11:49:12.265Z,2.65
2023-04-25T11:54:14.332Z,2.40
2023-04-25T11:59:17.646Z,1.80
2023-04-25T12:04:19.626Z,2.20
2023-04-25T12:09:31.876Z,2.55
2023-04-25T12:14:35.907Z,2.70
2023-04-25T12:19:41.530Z,2.47
2023-04-25T12:24:46.227Z,2.20
2023-04-25T12:29:55.753Z,2.03
2023-04-25T12:34:57.649Z,1.73
2023-04-25T12:39:59.585Z,1.95
2023-04-25T12:45:01.474Z,1.90
2023-04-25T12:50:03.288Z,1.33
2023-04-25T12:55:05.579Z,1.58
2023-04-25T13:00:10.391Z,1.85
2023-04-25T13:05:12.190Z,1.70
2023-04-25T13:10:14.124Z,1.80
2023-04-25T13:15:16.671Z,1.85
2023-04-25T13:20:23.218Z,2.30
2023-04-25T13:25:25.066Z,1.90
2023-04-25T13:30:26.919Z,2.20
2023-04-25T13:35:28.653Z,2.00
2023-04-25T13:40:30.640Z,2.70
2023-04-25T13:45:33.651Z,2.10
2023-04-25T13:50:36.235Z,2.30
2023-04-25T13:55:38.410Z,1.95
2023-04-25T14:00:44.129Z,2.47
2023-04-25T14:05:46.040Z,2.47
2023-04-25T14:10:48.021Z,2.50
2023-04-25T14:15:51.256Z,2.38
2023-04-25T14:20:53.183Z,2.35
2023-04-25T14:25:55.034Z,2.05
2023-04-25T14:30:57.087Z,2.10
2023-04-25T14:35:58.895Z,2.10
2023-04-25T14:41:00.675Z,2.22
2023-04-25T14:46:03.059Z,2.55
2023-04-25T14:51:05.347Z,2.53
2023-04-25T14:56:08.189Z,2.20
2023-04-25T15:01:10.556Z,2.00
2023-04-25T15:06:12.378Z,1.67
2023-04-25T15:11:14.242Z,2.30
2023-04-25T15:16:16.257Z,1.90
2023-04-25T15:21:18.158Z,2.00
2023-04-25T15:26:20.408Z,2.30
2023-04-25T15:31:23.029Z,1.73
2023-04-25T15:36:24.825Z,1.83
2023-04-25T15:41:26.852Z,5.25
2023-04-25T15:46:31.147Z,2.72
2023-04-25T15:51:33.796Z,1.80
2023-04-25T15:56:35.951Z,1.67
2023-04-25T16:01:38.102Z,1.70
2023-04-25T16:06:40.167Z,1.90
2023-04-25T16:11:41.964Z,1.75
2023-04-25T16:16:44.857Z,1.45
2023-04-25T16:21:47.300Z,1.25
2023-04-25T16:26:49.092Z,1.10
2023-04-25T16:31:51.035Z,1.00
2023-04-25T16:36:56.693Z,1.25
2023-04-25T16:41:58.471Z,1.30
2023-04-25T16:47:00.408Z,1.35
2023-04-25T16:52:02.430Z,1.42
2023-04-25T16:57:05.548Z,1.13
2023-04-25T17:02:12.785Z,2.00
2023-04-25T17:07:15.914Z,1.67
2023-04-25T17:12:19.673Z,1.48
2023-04-25T17:17:21.589Z,1.30
2023-04-25T17:22:24.683Z,1.67
2023-04-25T17:27:26.756Z,1.50
2023-04-25T17:32:28.606Z,1.67
2023-04-25T17:37:30.818Z,1.50
2023-04-25T17:42:32.721Z,1.60
2023-04-25T17:47:34.982Z,1.42
2023-04-25T17:52:38.489Z,1.58
2023-04-25T17:57:40.250Z,1.58
2023-04-25T18:02:42.228Z,1.38
2023-04-25T18:07:44.142Z,1.38
2023-04-25T18:12:46.160Z,2.10
2023-04-25T18:17:48.178Z,1.80
2023-04-25T18:22:50.753Z,1.55
2023-04-25T18:27:52.642Z,1.70
2023-04-25T18:32:55.899Z,1.90
2023-04-25T18:37:57.793Z,2.00
2023-04-25T18:43:00.205Z,2.05
2023-04-25T18:48:02.679Z,2.00
2023-04-25T18:53:04.638Z,2.25
2023-04-25T18:58:07.671Z,2.00
2023-04-25T19:03:09.779Z,2.10
2023-04-25T19:08:11.670Z,2.45
2023-04-25T19:13:13.857Z,2.42
2023-04-25T19:18:15.763Z,2.20
2023-04-25T19:23:17.700Z,2.42
2023-04-25T19:28:19.692Z,2.13
2023-04-25T19:33:21.654Z,2.38
2023-04-25T19:38:23.471Z,2.55
2023-04-25T19:43:25.298Z,2.50
2023-04-25T19:48:27.481Z,2.70
2023-04-25T19:53:29.288Z,2.42
2023-04-25T19:58:31.505Z,2.28
2023-04-25T20:03:33.432Z,2.17
2023-04-25T20:08:35.844Z,3.47
2023-04-25T20:13:37.566Z,2.38
2023-04-25T20:18:40.128Z,2.28
2023-04-25T20:23:43.714Z,2.60
2023-04-25T20:28:46.017Z,2.58
2023-04-25T20:33:48.256Z,2.50
2023-04-25T20:38:50.225Z,2.60
2023-04-25T20:43:53.301Z,2.90
2023-04-25T20:48:55.066Z,3.00
2023-04-25T20:53:57.397Z,2.58
2023-04-25T20:58:59.226Z,2.70
2023-04-25T21:04:01.158Z,4.82
2023-04-25T21:09:04.618Z,2.65
2023-04-25T21:14:07.377Z,2.22
2023-04-25T21:19:09.581Z,2.60
2023-04-25T21:24:14.143Z,2.47
2023-04-25T21:29:15.888Z,2.90
2023-04-25T21:34:18.394Z,2.53
2023-04-25T21:39:20.259Z,2.65
2023-04-25T21:44:22.128Z,2.15
2023-04-25T21:49:29.218Z,4.00
2023-04-25T21:54:31.092Z,2.83
2023-04-25T21:59:33.019Z,2.47
2023-04-25T22:04:35.010Z,3.00
2023-04-25T22:09:47.388Z,2.90
2023-04-25T22:14:53.501Z,2.92
2023-04-25T22:19:55.381Z,5.03
2023-04-25T22:24:57.342Z,3.67
2023-04-25T22:29:59.190Z,3.70
2023-04-25T22:35:01.472Z,3.20
2023-04-25T22:40:07.663Z,3.42
2023-04-25T22:45:10.424Z,2.97
2023-04-25T22:50:13.726Z,3.30
2023-04-25T22:55:15.948Z,3.20
2023-04-25T23:00:21.785Z,4.03
2023-04-25T23:05:24.618Z,5.78
2023-04-25T23:10:28.224Z,5.55
2023-04-25T23:15:33.274Z,4.38
2023-04-25T23:20:35.159Z,3.45
2023-04-25T23:25:40.338Z,3.30
2023-04-25T23:30:42.174Z,3.65
2023-04-25T23:35:44.026Z,3.70
2023-04-25T23:40:46.092Z,3.47
2023-04-25T23:45:47.888Z,3.10
2023-04-25T23:50:49.610Z,3.65
2023-04-25T23:55:51.490Z,3.00
